Time;durP1;ratioP1;P1;durP2;ratioP2;P2;SDS_P1;SDS_P2;PMS_P1;PMS_P2;Temp;Humidity;BMP_temperature;BMP_pressure;BME280_temperature;BME280_humidity;BME280_pressure;Samples;Min_cycle;Max_cycle;Signal;HPM_P1;HPM_P2
2021/09/27 00:00:21;;;;;;;15.63;14.23;;;19.20;99.90;;;;;;6199752;28;20241;-64
2021/09/27 00:03:25;;;;;;;14.70;13.57;;;19.10;99.90;;;;;;6199797;28;20241;-64
2021/09/27 00:06:28;;;;;;;15.63;14.27;;;19.10;99.90;;;;;;6199635;28;20244;-64
2021/09/27 00:09:33;;;;;;;15.20;13.90;;;19.10;99.90;;;;;;6200649;28;20239;-63
2021/09/27 00:12:39;;;;;;;16.70;13.13;;;19.10;99.90;;;;;;6196503;28;20246;-63
2021/09/27 00:15:45;;;;;;;14.70;13.40;;;19.10;99.90;;;;;;6201083;28;20566;-64
2021/09/27 00:18:49;;;;;;;14.43;13.33;;;19.10;99.90;;;;;;6203766;28;20249;-63
2021/09/27 00:21:54;;;;;;;14.57;13.30;;;19.10;99.90;;;;;;6205502;28;20249;-63
2021/09/27 00:24:57;;;;;;;14.57;13.43;;;19.10;99.90;;;;;;6205846;28;20244;-63
2021/09/27 00:28:01;;;;;;;15.40;14.10;;;19.10;99.90;;;;;;6205253;28;20284;-63
2021/09/27 00:31:05;;;;;;;14.40;13.23;;;19.00;99.90;;;;;;6205222;28;20260;-63
2021/09/27 00:34:08;;;;;;;14.87;13.50;;;19.00;99.90;;;;;;6204846;28;20233;-63
2021/09/27 00:37:12;;;;;;;14.67;13.47;;;19.00;99.90;;;;;;6205053;28;20549;-63
2021/09/27 00:40:18;;;;;;;15.10;13.90;;;19.00;99.90;;;;;;6204568;28;20559;-63
2021/09/27 00:43:23;;;;;;;14.70;13.57;;;19.00;99.90;;;;;;6205092;28;20299;-63
2021/09/27 00:46:28;;;;;;;15.17;13.77;;;19.00;99.90;;;;;;6204804;28;20240;-64
2021/09/27 00:49:32;;;;;;;14.60;13.40;;;19.00;99.90;;;;;;6204893;28;20233;-64
2021/09/27 00:52:35;;;;;;;14.30;13.00;;;19.10;99.90;;;;;;6205052;28;20237;-64
2021/09/27 00:55:38;;;;;;;15.40;14.10;;;19.00;99.90;;;;;;6204826;28;20240;-63
2021/09/27 00:58:44;;;;;;;16.07;14.47;;;19.10;99.90;;;;;;6204750;28;20230;-64
2021/09/27 01:01:47;;;;;;;14.67;13.37;;;19.00;99.90;;;;;;6204405;28;20256;-63
2021/09/27 01:04:51;;;;;;;15.40;14.00;;;19.00;99.90;;;;;;6204649;28;20248;-64
2021/09/27 01:08:01;;;;;;;18.73;14.17;;;19.00;99.90;;;;;;6204584;28;20231;-63
2021/09/27 01:11:23;;;;;;;14.97;13.70;;;18.90;99.90;;;;;;6204485;28;20276;-63
2021/09/27 01:14:39;;;;;;;15.37;14.00;;;18.90;99.90;;;;;;6204417;28;20225;-63
2021/09/27 01:17:50;;;;;;;14.40;13.20;;;18.80;99.90;;;;;;6199924;28;20234;-63
2021/09/27 01:21:08;;;;;;;13.43;12.37;;;18.90;99.90;;;;;;6203774;28;20244;-63
2021/09/27 01:24:39;;;;;;;15.37;14.10;;;18.90;99.90;;;;;;6204258;28;20233;-63
2021/09/27 01:28:20;;;;;;;13.93;12.83;;;18.90;99.90;;;;;;6204268;28;20616;-63
2021/09/27 01:31:40;;;;;;;15.57;14.27;;;18.80;99.90;;;;;;6178107;28;20268;-63
2021/09/27 01:34:50;;;;;;;14.20;13.10;;;18.80;99.90;;;;;;6203802;28;20237;-63
2021/09/27 01:38:10;;;;;;;15.83;14.20;;;18.80;99.90;;;;;;6203518;28;20295;-63
2021/09/27 01:41:28;;;;;;;16.73;15.33;;;18.80;99.90;;;;;;6203379;28;20256;-63
2021/09/27 01:44:36;;;;;;;15.80;14.50;;;18.80;99.90;;;;;;6203156;28;20574;-63
2021/09/27 01:47:45;;;;;;;15.83;14.33;;;18.80;99.90;;;;;;6203854;28;20528;-63
2021/09/27 01:50:58;;;;;;;16.23;14.77;;;18.80;99.90;;;;;;6203513;28;20233;-63
2021/09/27 01:54:09;;;;;;;15.67;14.47;;;18.70;99.90;;;;;;6203358;28;20226;-63
2021/09/27 01:57:19;;;;;;;17.13;15.73;;;18.60;99.90;;;;;;6203798;28;20241;-63
2021/09/27 02:00:27;;;;;;;16.90;15.30;;;18.50;99.90;;;;;;6202810;28;20690;-63
2021/09/27 02:03:36;;;;;;;16.40;14.80;;;18.50;99.90;;;;;;6203695;28;20553;-64
2021/09/27 02:06:44;;;;;;;16.03;14.73;;;18.40;99.90;;;;;;6203170;28;20240;-63
2021/09/27 02:09:55;;;;;;;17.40;15.70;;;18.30;99.90;;;;;;6203018;28;20238;-63
2021/09/27 02:13:07;;;;;;;17.40;16.00;;;18.30;99.90;;;;;;6257371;23;20233;-62
2021/09/27 02:16:16;;;;;;;17.93;16.33;;;18.20;99.90;;;;;;6252157;28;20224;-63
2021/09/27 02:19:30;;;;;;;17.87;16.37;;;18.20;99.90;;;;;;6251481;28;20701;-63
2021/09/27 02:22:40;;;;;;;17.40;15.90;;;18.30;99.90;;;;;;6247071;28;20236;-63
2021/09/27 02:25:45;;;;;;;17.27;15.63;;;18.30;99.90;;;;;;6252097;28;20228;-63
2021/09/27 02:28:49;;;;;;;16.33;15.00;;;18.40;99.90;;;;;;6251686;28;20707;-63
2021/09/27 02:32:03;;;;;;;17.83;16.20;;;18.50;99.90;;;;;;6251593;28;20236;-63
2021/09/27 02:35:11;;;;;;;16.07;14.77;;;18.50;99.90;;;;;;6251112;28;20475;-63
2021/09/27 02:38:22;;;;;;;17.63;16.13;;;18.50;99.90;;;;;;6251509;28;20232;-63
2021/09/27 02:41:29;;;;;;;17.50;16.00;;;18.50;99.90;;;;;;6250938;28;20243;-63
2021/09/27 02:44:34;;;;;;;17.33;15.73;;;18.50;99.90;;;;;;6251261;28;20517;-63
2021/09/27 02:47:40;;;;;;;16.20;14.93;;;18.50;99.90;;;;;;6251270;28;20208;-63
2021/09/27 02:50:48;;;;;;;16.63;15.23;;;18.50;99.90;;;;;;6251275;28;20228;-64
2021/09/27 02:53:53;;;;;;;17.70;16.23;;;18.50;99.90;;;;;;6251210;28;20235;-64
2021/09/27 02:57:25;;;;;;;16.93;15.33;;;18.40;99.90;;;;;;6250755;28;20228;-64
2021/09/27 03:00:36;;;;;;;15.53;14.23;;;18.40;99.90;;;;;;6251275;28;20294;-63
2021/09/27 03:03:53;;;;;;;19.00;17.20;;;18.40;99.90;;;;;;6250642;28;20319;-63
2021/09/27 03:07:11;;;;;;;17.30;15.50;;;18.50;99.90;;;;;;6250745;28;20704;-63
2021/09/27 03:10:25;;;;;;;18.60;17.00;;;18.50;99.90;;;;;;6248572;28;20235;-63
2021/09/27 03:13:39;;;;;;;18.17;16.50;;;18.50;99.90;;;;;;6226790;28;20255;-64
2021/09/27 03:16:54;;;;;;;18.33;16.50;;;18.50;99.90;;;;;;6226287;28;20237;-63
2021/09/27 03:20:17;;;;;;;17.07;15.77;;;18.50;99.90;;;;;;6226395;28;20324;-64
2021/09/27 03:23:29;;;;;;;18.43;16.63;;;18.50;99.90;;;;;;6221528;28;20229;-64
2021/09/27 03:26:48;;;;;;;17.93;16.37;;;18.50;99.90;;;;;;6226114;28;20220;-64
2021/09/27 03:30:03;;;;;;;18.40;16.90;;;18.50;99.90;;;;;;6225913;28;20574;-64
2021/09/27 03:33:16;;;;;;;17.20;15.47;;;18.50;99.90;;;;;;6226132;28;20251;-64
2021/09/27 03:36:38;;;;;;;18.90;17.10;;;18.60;99.90;;;;;;6225793;28;20294;-64
2021/09/27 03:39:55;;;;;;;18.37;16.70;;;18.60;99.90;;;;;;6226243;28;20232;-64
2021/09/27 03:43:09;;;;;;;19.30;17.57;;;18.50;99.90;;;;;;6226086;28;20233;-64
2021/09/27 03:46:17;;;;;;;19.93;18.00;;;18.50;99.90;;;;;;6226081;28;20228;-64
2021/09/27 03:49:26;;;;;;;19.50;17.80;;;18.50;99.90;;;;;;6225371;28;20232;-64
2021/09/27 03:52:35;;;;;;;17.87;16.17;;;18.50;99.90;;;;;;6226503;28;20545;-64
2021/09/27 03:55:49;;;;;;;19.47;17.67;;;18.50;99.90;;;;;;6230857;28;20238;-64
2021/09/27 03:59:03;;;;;;;18.77;17.07;;;18.50;99.90;;;;;;6230234;28;20298;-64
2021/09/27 04:02:13;;;;;;;19.43;17.63;;;18.50;99.90;;;;;;6230368;28;20253;-64
2021/09/27 04:05:22;;;;;;;18.87;17.27;;;18.50;99.90;;;;;;6230543;28;20233;-64
2021/09/27 04:08:30;;;;;;;18.77;16.90;;;18.40;99.90;;;;;;6231108;28;20219;-64
2021/09/27 04:11:39;;;;;;;18.47;16.83;;;18.40;99.90;;;;;;6230028;28;20607;-64
2021/09/27 04:14:53;;;;;;;18.37;16.87;;;18.50;99.90;;;;;;6230529;28;20225;-64
2021/09/27 04:18:09;;;;;;;18.53;16.77;;;18.40;99.90;;;;;;6229832;28;20220;-64
2021/09/27 04:21:20;;;;;;;20.27;18.37;;;18.40;99.90;;;;;;6229982;28;20243;-64
2021/09/27 04:24:38;;;;;;;17.73;16.10;;;18.40;99.90;;;;;;6230177;28;20237;-64
2021/09/27 04:28:04;;;;;;;19.20;17.30;;;18.50;99.90;;;;;;6225992;28;20324;-64
2021/09/27 04:31:16;;;;;;;18.83;17.23;;;18.50;99.90;;;;;;6229628;28;20299;-65
2021/09/27 04:34:33;;;;;;;18.20;16.70;;;18.50;99.90;;;;;;6229622;28;20240;-64
2021/09/27 04:37:38;;;;;;;17.90;16.30;;;18.50;99.90;;;;;;6229890;28;20240;-63
2021/09/27 04:41:07;;;;;;;18.43;16.73;;;18.50;99.90;;;;;;6229790;28;20315;-64
2021/09/27 04:44:21;;;;;;;18.23;16.73;;;18.50;99.90;;;;;;6230143;28;20251;-64
2021/09/27 04:47:38;;;;;;;18.60;16.80;;;18.50;99.90;;;;;;6229277;28;20233;-64
2021/09/27 04:50:54;;;;;;;19.07;17.40;;;18.40;99.90;;;;;;6229804;28;20236;-64
2021/09/27 04:54:31;;;;;;;19.43;17.70;;;18.40;99.90;;;;;;6229770;28;20288;-64
2021/09/27 04:57:57;;;;;;;16.70;15.20;;;18.40;99.90;;;;;;6205796;28;20237;-64
2021/09/27 05:01:21;;;;;;;20.50;18.70;;;18.30;99.90;;;;;;6229377;28;20291;-63
2021/09/27 05:04:39;;;;;;;18.83;16.93;;;18.30;99.90;;;;;;6228973;28;20237;-64
2021/09/27 05:07:57;;;;;;;19.67;17.97;;;18.30;99.90;;;;;;6229202;28;20233;-64
2021/09/27 05:11:20;;;;;;;18.93;17.30;;;18.30;99.90;;;;;;6228691;28;20248;-64
2021/09/27 05:14:49;;;;;;;18.90;17.30;;;18.20;99.90;;;;;;6228888;28;20236;-64
2021/09/27 05:18:27;;;;;;;19.27;17.60;;;18.20;99.90;;;;;;6228362;28;20566;-64
2021/09/27 05:21:59;;;;;;;19.27;17.50;;;18.30;99.90;;;;;;6227955;28;20559;-65
2021/09/27 05:25:33;;;;;;;18.70;17.10;;;18.30;99.90;;;;;;6228716;28;20224;-64
2021/09/27 05:28:58;;;;;;;18.43;16.93;;;18.30;99.90;;;;;;6228044;28;20252;-67
2021/09/27 05:32:29;;;;;;;19.77;18.07;;;18.30;99.90;;;;;;6228233;28;20237;-65
2021/09/27 05:35:56;;;;;;;19.23;17.57;;;18.30;99.90;;;;;;6226447;28;20633;-65
2021/09/27 05:39:14;;;;;;;19.37;17.60;;;18.30;99.90;;;;;;6228384;28;20665;-65
2021/09/27 05:42:25;;;;;;;21.53;19.60;;;18.40;99.90;;;;;;6227546;28;20460;-65
2021/09/27 05:45:42;;;;;;;20.87;18.87;;;18.40;99.90;;;;;;6228245;28;20928;-65
2021/09/27 05:48:50;;;;;;;21.60;19.80;;;18.40;99.90;;;;;;6228144;28;20247;-64
2021/09/27 05:51:57;;;;;;;21.63;19.53;;;18.40;99.90;;;;;;6227677;28;20476;-64
2021/09/27 05:55:08;;;;;;;19.77;18.00;;;18.40;99.90;;;;;;6228479;28;20228;-64
2021/09/27 05:58:17;;;;;;;20.17;18.10;;;18.40;99.90;;;;;;6227922;28;20237;-64
2021/09/27 06:01:29;;;;;;;20.00;18.00;;;18.50;99.90;;;;;;6227755;28;20231;-65
2021/09/27 06:04:43;;;;;;;20.27;18.57;;;18.50;99.90;;;;;;6227603;28;20233;-65
2021/09/27 06:07:56;;;;;;;21.23;19.37;;;18.50;99.90;;;;;;6227302;28;20233;-64
2021/09/27 06:11:10;;;;;;;18.13;16.53;;;18.60;99.90;;;;;;6227308;28;20552;-64
2021/09/27 06:14:16;;;;;;;19.93;17.97;;;18.60;99.90;;;;;;6227293;28;20291;-65
2021/09/27 06:17:28;;;;;;;21.10;19.20;;;18.60;99.90;;;;;;6226816;28;20235;-64
2021/09/27 06:20:42;;;;;;;18.60;17.00;;;18.60;99.90;;;;;;6227293;28;20248;-64
2021/09/27 06:23:59;;;;;;;21.67;19.70;;;18.70;99.90;;;;;;6222618;28;20236;-64
2021/09/27 06:27:06;;;;;;;22.87;20.77;;;18.70;99.90;;;;;;6227583;28;20229;-64
2021/09/27 06:30:19;;;;;;;20.67;18.97;;;18.70;99.90;;;;;;6218515;28;20229;-62
2021/09/27 06:33:29;;;;;;;21.57;19.37;;;18.70;99.90;;;;;;6213062;28;20221;-62
2021/09/27 06:36:34;;;;;;;21.40;19.50;;;18.70;99.90;;;;;;6204944;28;20249;-62
2021/09/27 06:39:37;;;;;;;22.60;20.57;;;18.70;99.90;;;;;;6213356;28;20225;-64
2021/09/27 06:42:42;;;;;;;20.70;18.57;;;18.70;99.90;;;;;;6214806;28;20287;-63
2021/09/27 06:45:45;;;;;;;20.30;18.40;;;18.70;99.90;;;;;;6212551;28;20230;-63
2021/09/27 06:48:49;;;;;;;18.63;16.90;;;18.70;99.90;;;;;;6214730;28;20232;-64
2021/09/27 06:51:54;;;;;;;19.73;18.03;;;18.70;99.90;;;;;;6213657;28;20230;-63
2021/09/27 06:54:57;;;;;;;20.73;18.83;;;18.80;99.90;;;;;;6213527;28;20540;-63
2021/09/27 06:58:02;;;;;;;20.57;18.77;;;18.70;99.90;;;;;;6212664;28;20231;-63
2021/09/27 07:01:05;;;;;;;21.67;19.43;;;18.70;99.90;;;;;;6212079;28;20612;-63
2021/09/27 07:04:09;;;;;;;20.60;18.80;;;18.70;99.90;;;;;;6213326;28;20233;-63
2021/09/27 07:07:12;;;;;;;20.43;18.63;;;18.70;99.90;;;;;;6214066;28;20224;-63
2021/09/27 07:10:19;;;;;;;20.60;18.70;;;18.70;99.90;;;;;;6214885;28;20348;-63
2021/09/27 07:13:24;;;;;;;20.13;18.43;;;18.70;99.90;;;;;;6235800;28;20483;-62
2021/09/27 07:16:27;;;;;;;21.40;19.60;;;18.70;99.90;;;;;;6236702;28;20235;-62
2021/09/27 07:19:41;;;;;;;21.87;19.93;;;18.60;99.90;;;;;;6237189;28;20228;-63
2021/09/27 07:22:58;;;;;;;20.50;18.57;;;18.60;99.90;;;;;;6236206;28;20296;-63
2021/09/27 07:26:01;;;;;;;20.97;19.10;;;18.50;99.90;;;;;;6237383;28;20236;-63
2021/09/27 07:29:07;;;;;;;22.77;20.60;;;18.50;99.90;;;;;;6236980;28;20668;-63
2021/09/27 07:32:10;;;;;;;22.93;20.80;;;18.60;99.90;;;;;;6238118;28;20657;-63
2021/09/27 07:35:18;;;;;;;21.50;19.53;;;18.60;99.90;;;;;;6235759;28;20479;-63
2021/09/27 07:38:21;;;;;;;23.07;19.50;;;18.60;99.90;;;;;;6232471;28;20220;-63
2021/09/27 07:41:26;;;;;;;23.93;21.50;;;18.60;99.90;;;;;;6240437;28;20223;-64
2021/09/27 07:44:30;;;;;;;22.00;20.00;;;18.60;99.90;;;;;;6247097;28;20205;-63
2021/09/27 07:47:33;;;;;;;22.27;20.30;;;18.60;99.90;;;;;;6250868;28;20215;-63
2021/09/27 07:50:37;;;;;;;23.40;21.30;;;18.70;99.90;;;;;;6238742;28;20224;-63
2021/09/27 07:53:41;;;;;;;23.73;21.63;;;18.70;99.90;;;;;;6225286;28;20232;-63
2021/09/27 07:56:44;;;;;;;24.00;21.80;;;18.70;99.90;;;;;;6225722;28;20235;-63
2021/09/27 07:59:52;;;;;;;22.27;20.07;;;18.80;99.90;;;;;;6225836;28;20225;-63
2021/09/27 08:02:56;;;;;;;22.50;20.50;;;18.80;99.90;;;;;;6239486;28;20378;-63
2021/09/27 08:05:59;;;;;;;24.70;22.47;;;18.90;99.90;;;;;;6247603;28;20227;-63
2021/09/27 08:09:03;;;;;;;22.30;20.30;;;18.90;99.90;;;;;;6249136;28;20236;-62
2021/09/27 08:12:07;;;;;;;21.80;19.90;;;19.10;99.90;;;;;;6231812;28;20247;-63
2021/09/27 08:15:14;;;;;;;21.57;19.80;;;19.20;99.90;;;;;;6223771;28;20240;-62
2021/09/27 08:18:19;;;;;;;22.70;20.60;;;19.30;99.90;;;;;;6217676;28;20237;-62
2021/09/27 08:21:22;;;;;;;22.97;20.67;;;19.40;99.90;;;;;;6211851;28;20228;-62
2021/09/27 08:24:25;;;;;;;23.47;21.27;;;19.50;99.90;;;;;;6208864;28;20247;-63
2021/09/27 08:27:28;;;;;;;20.67;18.77;;;19.50;99.90;;;;;;6221194;28;20545;-63
2021/09/27 08:30:36;;;;;;;21.90;20.13;;;19.50;99.90;;;;;;6200789;28;20244;-63
2021/09/27 08:33:40;;;;;;;21.80;20.10;;;19.60;99.90;;;;;;6200526;28;20230;-63
2021/09/27 08:36:44;;;;;;;23.63;21.63;;;19.70;99.90;;;;;;6200879;28;20244;-63
2021/09/27 08:39:48;;;;;;;25.93;23.73;;;19.70;99.90;;;;;;6203377;28;20240;-62
2021/09/27 08:42:52;;;;;;;23.83;21.83;;;19.80;99.90;;;;;;6200967;28;20662;-62
2021/09/27 08:46:00;;;;;;;23.90;21.57;;;19.80;99.90;;;;;;6208081;28;20692;-62
2021/09/27 08:49:14;;;;;;;23.40;21.40;;;19.90;99.90;;;;;;6229320;28;20228;-61
2021/09/27 08:52:21;;;;;;;21.30;19.30;;;19.90;99.90;;;;;;6229061;28;20240;-61
2021/09/27 08:55:26;;;;;;;25.47;21.83;;;19.90;99.90;;;;;;6229153;28;20239;-60
2021/09/27 08:58:38;;;;;;;24.23;22.17;;;19.90;99.90;;;;;;6228863;28;20229;-60
2021/09/27 09:01:49;;;;;;;28.63;25.70;;;19.80;99.90;;;;;;6229012;28;20792;-60
2021/09/27 09:05:05;;;;;;;27.37;24.77;;;19.70;99.90;;;;;;6229484;28;20237;-61
2021/09/27 09:08:19;;;;;;;28.23;25.77;;;19.70;99.90;;;;;;6229430;28;20229;-62
2021/09/27 09:11:36;;;;;;;28.20;25.30;;;19.80;99.90;;;;;;6239446;28;20695;-62
2021/09/27 09:14:46;;;;;;;27.23;24.57;;;19.90;99.90;;;;;;6253085;28;20668;-61
2021/09/27 09:17:56;;;;;;;24.37;22.27;;;19.80;99.90;;;;;;6252789;28;20243;-62
2021/09/27 09:21:03;;;;;;;24.43;22.20;;;19.90;99.90;;;;;;6251925;28;20232;-62
2021/09/27 09:24:12;;;;;;;24.00;21.80;;;20.10;99.90;;;;;;6252744;28;20243;-62
2021/09/27 09:27:16;;;;;;;22.10;20.10;;;20.10;99.90;;;;;;6250937;28;20239;-62
2021/09/27 09:30:21;;;;;;;23.40;21.03;;;20.20;99.90;;;;;;6251308;28;20613;-62
2021/09/27 09:33:46;;;;;;;23.47;21.00;;;20.20;99.90;;;;;;6252783;28;20224;-62
2021/09/27 09:36:51;;;;;;;23.00;20.90;;;20.20;99.90;;;;;;6253157;28;20236;-62
2021/09/27 09:43:08;;;;;;;22.80;20.80;;;20.30;99.90;;;;;;6153191;28;20235;-63
2021/09/27 09:46:14;;;;;;;24.50;22.30;;;20.30;99.90;;;;;;6154648;29;20242;-63
2021/09/27 09:49:19;;;;;;;23.67;21.50;;;20.40;99.90;;;;;;6153747;28;20227;-63
2021/09/27 09:52:25;;;;;;;25.40;22.97;;;20.30;99.90;;;;;;6172196;28;20238;-62
2021/09/27 09:55:34;;;;;;;25.83;23.43;;;20.40;99.90;;;;;;6177922;28;20234;-62
2021/09/27 09:58:40;;;;;;;25.60;22.97;;;20.40;99.90;;;;;;6178090;28;20241;-62
2021/09/27 10:01:44;;;;;;;26.97;24.57;;;20.40;99.90;;;;;;6177842;28;20234;-61
2021/09/27 10:04:53;;;;;;;25.30;22.73;;;20.30;99.90;;;;;;6176763;28;20321;-62
2021/09/27 10:07:58;;;;;;;24.40;22.10;;;20.20;99.90;;;;;;6178012;28;20234;-63
2021/09/27 10:11:05;;;;;;;25.10;22.90;;;20.20;99.90;;;;;;6178660;28;20238;-61
2021/09/27 10:14:20;;;;;;;24.93;22.43;;;20.10;99.90;;;;;;6179126;28;20241;-62
2021/09/27 10:17:31;;;;;;;22.80;20.83;;;20.00;99.90;;;;;;6178529;28;20297;-62
2021/09/27 10:20:39;;;;;;;26.10;23.37;;;20.00;99.90;;;;;;6178784;28;20721;-62
2021/09/27 10:23:44;;;;;;;29.37;26.37;;;20.00;99.90;;;;;;6178285;28;20235;-61
2021/09/27 10:26:52;;;;;;;27.33;24.43;;;20.10;99.90;;;;;;6178857;28;20578;-61
2021/09/27 10:29:57;;;;;;;28.03;25.23;;;20.10;99.90;;;;;;6178852;28;20226;-61
2021/09/27 10:33:09;;;;;;;26.37;23.90;;;20.20;99.90;;;;;;6178881;28;20627;-61
2021/09/27 10:36:20;;;;;;;24.03;21.80;;;20.20;99.90;;;;;;6178495;28;20234;-61
2021/09/27 10:39:25;;;;;;;22.03;19.90;;;20.30;99.90;;;;;;6178451;28;20234;-61
2021/09/27 10:42:43;;;;;;;22.90;20.73;;;20.40;99.90;;;;;;6197320;28;20677;-62
2021/09/27 10:45:52;;;;;;;22.33;20.33;;;20.60;99.90;;;;;;6202086;28;20265;-61
2021/09/27 10:48:55;;;;;;;21.90;19.50;;;20.60;99.90;;;;;;6202152;28;20225;-62
2021/09/27 10:52:11;;;;;;;21.97;20.03;;;20.70;99.90;;;;;;6202519;28;20234;-62
2021/09/27 10:55:24;;;;;;;21.03;18.90;;;20.80;99.90;;;;;;6201935;28;20685;-65
2021/09/27 10:58:36;;;;;;;20.20;18.43;;;20.60;99.90;;;;;;6202352;28;20281;-62
2021/09/27 11:01:52;;;;;;;20.07;18.37;;;20.70;99.90;;;;;;6201765;28;20238;-62
2021/09/27 11:05:03;;;;;;;20.43;18.57;;;20.70;99.90;;;;;;6201927;28;20711;-62
2021/09/27 11:08:12;;;;;;;21.67;19.57;;;20.60;99.90;;;;;;6201920;28;20229;-62
2021/09/27 11:11:37;;;;;;;19.27;17.63;;;20.60;99.90;;;;;;6202001;28;20250;-62
2021/09/27 11:14:48;;;;;;;20.20;18.40;;;20.60;99.90;;;;;;6201896;28;20268;-62
2021/09/27 11:18:05;;;;;;;21.43;19.53;;;20.60;99.90;;;;;;6201919;28;20225;-62
2021/09/27 11:21:22;;;;;;;19.57;17.57;;;20.60;99.90;;;;;;6202320;28;20225;-62
2021/09/27 11:25:06;;;;;;;18.27;16.37;;;20.70;99.90;;;;;;6201677;28;20590;-62
2021/09/27 11:28:30;;;;;;;17.03;15.43;;;20.70;99.90;;;;;;6201930;28;20237;-62
2021/09/27 11:31:37;;;;;;;18.80;17.10;;;20.60;99.90;;;;;;6201622;28;20565;-62
2021/09/27 11:34:54;;;;;;;15.97;14.60;;;20.60;99.90;;;;;;6201713;28;20312;-62
2021/09/27 11:38:29;;;;;;;16.57;15.17;;;20.60;99.90;;;;;;6201635;28;20244;-62
2021/09/27 11:41:37;;;;;;;15.50;14.07;;;20.80;99.90;;;;;;6201212;28;20245;-62
2021/09/27 11:44:54;;;;;;;15.07;13.87;;;20.90;99.90;;;;;;6201403;28;20237;-62
2021/09/27 11:48:04;;;;;;;17.03;15.50;;;21.00;99.90;;;;;;6201627;28;20233;-62
2021/09/27 11:51:24;;;;;;;15.53;14.23;;;21.10;99.90;;;;;;6201199;28;20242;-62
2021/09/27 11:54:38;;;;;;;16.57;14.90;;;21.00;99.90;;;;;;6197557;28;20229;-62
2021/09/27 11:57:47;;;;;;;14.90;13.40;;;21.00;99.90;;;;;;6201201;28;20233;-62
2021/09/27 12:00:56;;;;;;;13.73;12.53;;;21.10;99.90;;;;;;6200995;28;20581;-62
2021/09/27 12:04:09;;;;;;;13.57;12.37;;;21.10;99.90;;;;;;6200890;28;20240;-62
2021/09/27 12:07:15;;;;;;;14.20;12.90;;;21.10;99.90;;;;;;6200861;28;20237;-62
2021/09/27 12:10:24;;;;;;;14.10;12.90;;;21.20;99.90;;;;;;6201123;28;20238;-61
2021/09/27 12:13:39;;;;;;;13.83;12.63;;;21.20;99.90;;;;;;6202015;28;20563;-62
2021/09/27 12:16:49;;;;;;;12.97;11.80;;;21.30;99.90;;;;;;6205541;28;20581;-62
2021/09/27 12:19:58;;;;;;;14.63;13.33;;;21.30;99.90;;;;;;6206451;28;20229;-61
2021/09/27 12:23:02;;;;;;;14.90;13.40;;;21.30;99.90;;;;;;6205653;28;20659;-61
2021/09/27 12:26:06;;;;;;;13.00;12.00;;;21.50;99.90;;;;;;6205735;28;20260;-61
2021/09/27 12:29:13;;;;;;;14.30;13.10;;;21.40;99.90;;;;;;6205977;28;20225;-61
2021/09/27 12:32:23;;;;;;;14.37;12.90;;;21.50;99.90;;;;;;6205915;28;20249;-62
2021/09/27 12:35:30;;;;;;;12.77;11.67;;;21.60;99.90;;;;;;6205447;28;20312;-62
2021/09/27 12:38:34;;;;;;;12.40;11.40;;;21.60;99.90;;;;;;6205095;28;20660;-61
2021/09/27 12:41:51;;;;;;;12.33;11.33;;;21.70;99.90;;;;;;6205527;28;20236;-61
2021/09/27 12:45:03;;;;;;;13.30;12.10;;;21.70;99.90;;;;;;6204951;28;20241;-62
2021/09/27 12:48:10;;;;;;;12.80;11.70;;;21.90;99.90;;;;;;6205482;28;20225;-62
2021/09/27 12:51:18;;;;;;;12.37;11.27;;;21.90;99.90;;;;;;6205750;28;20602;-62
2021/09/27 12:54:29;;;;;;;11.77;10.60;;;21.90;99.90;;;;;;6205019;28;20621;-62
2021/09/27 12:57:37;;;;;;;12.13;10.83;;;22.00;99.90;;;;;;6191420;28;20237;-62
2021/09/27 13:00:43;;;;;;;13.03;11.83;;;22.10;99.90;;;;;;6204972;28;20257;-62
2021/09/27 13:03:50;;;;;;;13.77;12.43;;;22.10;99.90;;;;;;6204625;28;20364;-62
2021/09/27 13:07:03;;;;;;;15.10;13.80;;;22.10;99.90;;;;;;6204904;28;20237;-62
2021/09/27 13:10:23;;;;;;;14.63;12.53;;;22.20;99.90;;;;;;6204585;28;20237;-62
2021/09/27 13:13:32;;;;;;;11.30;10.13;;;22.30;99.90;;;;;;6204388;28;20221;-62
2021/09/27 13:16:41;;;;;;;11.90;10.90;;;22.30;99.90;;;;;;6204739;28;20677;-62
2021/09/27 13:19:46;;;;;;;13.53;12.43;;;22.40;99.90;;;;;;6204378;28;20251;-62
2021/09/27 13:22:50;;;;;;;11.70;10.63;;;22.60;99.90;;;;;;6204363;28;20250;-61
2021/09/27 13:25:56;;;;;;;11.80;10.87;;;22.70;99.90;;;;;;6204082;28;20233;-61
2021/09/27 13:29:02;;;;;;;12.17;10.97;;;22.80;99.90;;;;;;6205210;28;20237;-61
2021/09/27 13:32:29;;;;;;;11.90;10.80;;;22.90;99.90;;;;;;6204121;28;20241;-62
2021/09/27 13:35:37;;;;;;;12.37;11.23;;;23.00;99.90;;;;;;6203812;28;20218;-61
2021/09/27 13:38:46;;;;;;;11.93;10.53;;;23.10;99.90;;;;;;6204174;28;20210;-61
2021/09/27 13:41:52;;;;;;;12.60;11.50;;;23.20;99.90;;;;;;6203826;28;21203;-61
2021/09/27 13:44:55;;;;;;;11.57;10.37;;;23.00;99.90;;;;;;6204428;28;20241;-61
2021/09/27 13:48:00;;;;;;;10.70;9.90;;;23.00;99.90;;;;;;6204183;28;20237;-61
2021/09/27 13:51:04;;;;;;;11.03;10.07;;;23.00;99.90;;;;;;6203660;28;20573;-61
2021/09/27 13:54:11;;;;;;;11.60;10.70;;;22.90;99.90;;;;;;6203683;28;20225;-61
2021/09/27 13:57:14;;;;;;;11.07;10.03;;;23.00;99.90;;;;;;6199682;28;20688;-61
2021/09/27 14:00:18;;;;;;;11.27;10.17;;;23.00;99.90;;;;;;6203650;28;20233;-61
2021/09/27 14:03:27;;;;;;;9.53;8.53;;;23.00;99.90;;;;;;6203385;28;20274;-61
2021/09/27 14:06:32;;;;;;;10.33;9.23;;;23.20;99.90;;;;;;6203640;28;20233;-61
2021/09/27 14:09:36;;;;;;;9.10;8.30;;;23.20;99.90;;;;;;6202453;28;20252;-61
2021/09/27 14:12:39;;;;;;;9.20;8.40;;;23.30;99.90;;;;;;6203198;28;20237;-62
2021/09/27 14:15:44;;;;;;;9.90;9.00;;;23.30;99.90;;;;;;6203400;28;20692;-62
2021/09/27 14:18:50;;;;;;;10.17;9.37;;;23.30;99.90;;;;;;6203197;28;20295;-61
2021/09/27 14:21:54;;;;;;;8.80;8.00;;;23.60;99.90;;;;;;6203443;28;20233;-62
2021/09/27 14:24:57;;;;;;;8.50;7.70;;;23.80;99.90;;;;;;6203138;28;20776;-61
2021/09/27 14:28:00;;;;;;;8.37;7.53;;;23.60;99.90;;;;;;6202987;28;20696;-62
2021/09/27 14:31:05;;;;;;;10.17;9.13;;;23.50;99.90;;;;;;6202849;28;20245;-62
2021/09/27 14:34:10;;;;;;;8.83;8.10;;;23.40;99.90;;;;;;6202802;28;20241;-62
2021/09/27 14:37:13;;;;;;;10.53;9.63;;;23.10;99.90;;;;;;6202393;28;20288;-62
2021/09/27 14:40:19;;;;;;;11.60;8.50;;;22.90;99.90;;;;;;6202835;28;20234;-63
2021/09/27 14:43:23;;;;;;;9.30;8.50;;;22.80;99.90;;;;;;6202904;28;20237;-64
2021/09/27 14:46:26;;;;;;;10.83;9.10;;;22.70;99.90;;;;;;6203143;28;20244;-61
2021/09/27 14:49:30;;;;;;;9.13;8.10;;;22.60;99.90;;;;;;6202600;28;20292;-62
2021/09/27 14:52:34;;;;;;;8.33;7.63;;;22.60;99.90;;;;;;6202681;28;20248;-64
2021/09/27 14:55:37;;;;;;;8.20;7.47;;;22.50;99.90;;;;;;6202582;28;20236;-63
2021/09/27 14:58:41;;;;;;;12.50;8.63;;;22.60;99.90;;;;;;6202052;28;20229;-62
2021/09/27 15:01:44;;;;;;;8.97;8.23;;;22.60;99.90;;;;;;6202195;28;20245;-62
2021/09/27 15:04:49;;;;;;;8.83;8.07;;;22.60;99.90;;;;;;6202154;28;20246;-63
2021/09/27 15:07:53;;;;;;;9.23;8.40;;;22.30;99.90;;;;;;6202167;28;20230;-62
2021/09/27 15:11:03;;;;;;;9.53;8.53;;;22.30;99.90;;;;;;6202296;28;20594;-62
2021/09/27 15:14:08;;;;;;;10.00;8.87;;;22.20;99.90;;;;;;6201899;28;20229;-62
2021/09/27 15:17:11;;;;;;;9.50;8.60;;;22.20;99.90;;;;;;6202096;28;20543;-62
2021/09/27 15:20:19;;;;;;;9.33;8.60;;;22.00;99.90;;;;;;6202185;28;20680;-62
2021/09/27 15:23:30;;;;;;;10.27;9.30;;;21.90;99.90;;;;;;6202014;28;20244;-62
2021/09/27 15:26:34;;;;;;;9.93;9.13;;;21.70;99.90;;;;;;6201446;28;20218;-62
2021/09/27 15:29:38;;;;;;;11.83;10.73;;;21.70;99.90;;;;;;6202123;28;20206;-62
2021/09/27 15:32:42;;;;;;;11.73;10.63;;;21.60;99.90;;;;;;6201208;28;20721;-62
2021/09/27 15:35:48;;;;;;;11.43;10.30;;;21.40;99.90;;;;;;6201681;28;20233;-62
2021/09/27 15:38:54;;;;;;;12.10;11.10;;;21.40;99.90;;;;;;6201522;28;20225;-62
2021/09/27 15:41:58;;;;;;;11.80;10.80;;;21.30;99.90;;;;;;6201290;28;20236;-62
2021/09/27 15:45:02;;;;;;;13.53;11.70;;;21.30;99.90;;;;;;6201588;28;20233;-62
2021/09/27 15:48:06;;;;;;;12.97;11.87;;;21.00;99.90;;;;;;6200985;28;20230;-62
2021/09/27 15:51:10;;;;;;;15.00;13.50;;;20.80;99.90;;;;;;6201314;28;20229;-62
2021/09/27 15:54:14;;;;;;;15.70;13.90;;;20.80;99.90;;;;;;6200846;28;20569;-62
2021/09/27 15:57:18;;;;;;;15.33;14.03;;;20.70;99.90;;;;;;6201131;28;20229;-62
2021/09/27 16:00:21;;;;;;;13.90;12.80;;;20.70;99.90;;;;;;6200921;28;20229;-62
2021/09/27 16:03:25;;;;;;;16.23;14.70;;;20.70;99.90;;;;;;6197049;28;20233;-62
2021/09/27 16:06:30;;;;;;;15.63;14.07;;;20.60;99.90;;;;;;6201385;28;20234;-62